createdAt,value
2017-06-09T00:00:03.814Z,923.93
2017-06-09T00:00:23.191Z,923.96
2017-06-09T00:00:42.561Z,923.97
2017-06-09T00:01:00.949Z,923.96
2017-06-09T00:01:19.787Z,923.99
2017-06-09T00:01:39.189Z,923.98
2017-06-09T00:01:58.056Z,924.01
2017-06-09T00:02:17.408Z,924.03
2017-06-09T00:02:36.783Z,924
2017-06-09T00:02:56.142Z,924.02
2017-06-09T00:03:15.009Z,924.04
2017-06-09T00:03:34.351Z,924.05
2017-06-09T00:03:53.707Z,924.05
2017-06-09T00:04:13.038Z,924.01
2017-06-09T00:04:32.394Z,924
2017-06-09T00:04:50.703Z,924.05
2017-06-09T00:05:10.040Z,924.02
2017-06-09T00:05:29.389Z,924.01
2017-06-09T00:05:48.809Z,924
2017-06-09T00:06:08.210Z,923.97
2017-06-09T00:06:27.036Z,923.97
2017-06-09T00:06:45.875Z,924.01
2017-06-09T00:07:04.205Z,923.97
2017-06-09T00:07:23.577Z,923.96
2017-06-09T00:07:42.403Z,923.97
2017-06-09T00:08:01.759Z,923.96
2017-06-09T00:08:20.613Z,923.99
2017-06-09T00:08:39.983Z,924.03
2017-06-09T00:08:59.318Z,924.01
2017-06-09T00:09:18.678Z,924.02
2017-06-09T00:09:37.509Z,924.05
2017-06-09T00:09:56.346Z,924
2017-06-09T00:10:15.184Z,924.02
2017-06-09T00:10:34.053Z,924.04
2017-06-09T00:10:53.393Z,924.02
2017-06-09T00:11:12.766Z,924.03
2017-06-09T00:11:32.152Z,924.01
2017-06-09T00:11:51.035Z,924
2017-06-09T00:12:10.605Z,924.01
2017-06-09T00:12:29.469Z,923.98
2017-06-09T00:12:48.840Z,924.01
2017-06-09T00:13:08.208Z,924
2017-06-09T00:13:27.050Z,924
2017-06-09T00:13:46.382Z,924.01
2017-06-09T00:14:05.195Z,923.99
2017-06-09T00:14:23.510Z,923.99
2017-06-09T00:14:42.857Z,924.01
2017-06-09T00:15:01.700Z,924.06
2017-06-09T00:15:21.068Z,924.08
2017-06-09T00:15:40.427Z,924
2017-06-09T00:15:59.271Z,924.01
2017-06-09T00:16:17.587Z,924.04
2017-06-09T00:16:36.432Z,924.02
2017-06-09T00:16:55.238Z,923.99
2017-06-09T00:17:14.579Z,924.03
2017-06-09T00:17:33.410Z,924.02
2017-06-09T00:17:52.767Z,924.03
2017-06-09T00:18:12.136Z,924.06
2017-06-09T00:18:31.495Z,924.02
2017-06-09T00:18:49.828Z,924.03
2017-06-09T00:19:09.195Z,924.02
2017-06-09T00:19:28.036Z,924.01
2017-06-09T00:19:47.490Z,924.02
2017-06-09T00:20:06.879Z,924.05
2017-06-09T00:20:26.293Z,924.07
2017-06-09T00:20:45.696Z,924.01
2017-06-09T00:21:05.075Z,924.03
2017-06-09T00:21:23.941Z,924.01
2017-06-09T00:21:42.777Z,924.02
2017-06-09T00:22:01.164Z,924
2017-06-09T00:22:20.509Z,923.97
2017-06-09T00:22:39.441Z,924
2017-06-09T00:22:58.369Z,923.95
2017-06-09T00:23:17.740Z,923.96
2017-06-09T00:23:37.116Z,924.02
2017-06-09T00:23:56.460Z,923.98
2017-06-09T00:24:15.290Z,923.99
2017-06-09T00:24:34.642Z,923.98
2017-06-09T00:24:54.008Z,923.99
2017-06-09T00:25:12.846Z,923.95
2017-06-09T00:25:31.691Z,923.98
2017-06-09T00:25:51.067Z,923.95
2017-06-09T00:26:10.475Z,924.01
2017-06-09T00:26:29.375Z,923.99
2017-06-09T00:26:48.737Z,923.96
2017-06-09T00:27:08.092Z,923.97
2017-06-09T00:27:26.978Z,924.03
2017-06-09T00:27:46.328Z,924.04
2017-06-09T00:28:05.172Z,924.03
2017-06-09T00:28:23.989Z,924.06
2017-06-09T00:28:42.829Z,924.06
2017-06-09T00:29:02.158Z,924.05
2017-06-09T00:29:21.039Z,924.01
2017-06-09T00:29:39.903Z,924.01
2017-06-09T00:29:59.292Z,924.02
2017-06-09T00:30:18.659Z,923.99
2017-06-09T00:30:37.502Z,924.04
2017-06-09T00:30:56.388Z,924.04
2017-06-09T00:31:15.793Z,924.05
2017-06-09T00:31:34.611Z,924.12
2017-06-09T00:31:53.984Z,924.1
2017-06-09T00:32:13.351Z,924.13
2017-06-09T00:32:32.718Z,924.13
2017-06-09T00:32:51.046Z,924.08
2017-06-09T00:33:10.386Z,924.13
2017-06-09T00:33:29.266Z,924.11
2017-06-09T00:33:48.616Z,924.15
2017-06-09T00:34:07.495Z,924.14
2017-06-09T00:34:26.903Z,924.16
2017-06-09T00:34:46.725Z,924.14
2017-06-09T00:35:06.300Z,924.14
2017-06-09T00:35:25.662Z,924.17
2017-06-09T00:35:45.130Z,924.17
2017-06-09T00:36:37.898Z,924.22
2017-06-09T00:36:56.821Z,924.19
2017-06-09T00:37:16.228Z,924.14
2017-06-09T00:37:35.562Z,924.15
2017-06-09T00:37:53.864Z,924.18
2017-06-09T00:38:13.197Z,924.18
2017-06-09T00:38:32.588Z,924.17
2017-06-09T00:38:51.962Z,924.16
2017-06-09T00:39:10.355Z,924.14
2017-06-09T00:39:29.731Z,924.13
2017-06-09T00:39:49.219Z,924.15
2017-06-09T00:40:08.627Z,924.14
2017-06-09T00:40:28.049Z,924.17
2017-06-09T00:40:47.418Z,924.19
2017-06-09T00:41:06.275Z,924.17
2017-06-09T00:41:25.473Z,924.17
2017-06-09T00:41:44.931Z,924.16
2017-06-09T00:42:04.387Z,924.11
2017-06-09T00:42:23.298Z,924.12
2017-06-09T00:42:42.713Z,924.11
2017-06-09T00:43:02.108Z,924.08
2017-06-09T00:43:21.482Z,924.19
2017-06-09T00:43:40.378Z,924.16
2017-06-09T00:43:58.773Z,924.11
2017-06-09T00:44:18.364Z,924.13
2017-06-09T00:44:37.740Z,924.14
2017-06-09T00:44:56.649Z,924.12
2017-06-09T00:45:15.513Z,924.16
2017-06-09T00:45:34.877Z,924.19
2017-06-09T00:45:54.251Z,924.16
2017-06-09T00:46:13.578Z,924.17
2017-06-09T00:46:32.416Z,924.23
2017-06-09T00:46:51.841Z,924.23
2017-06-09T00:47:11.217Z,924.21
2017-06-09T00:47:30.556Z,924.23
2017-06-09T00:47:49.980Z,924.19
2017-06-09T00:48:09.324Z,924.21
2017-06-09T00:48:28.694Z,924.22
2017-06-09T00:48:48.112Z,924.24
2017-06-09T00:49:06.940Z,924.22
2017-06-09T00:49:26.377Z,924.25
2017-06-09T00:49:45.793Z,924.26
2017-06-09T00:50:04.655Z,924.23
2017-06-09T00:50:24.071Z,924.26
2017-06-09T00:50:43.539Z,924.21
2017-06-09T00:51:02.382Z,924.21
2017-06-09T00:51:21.771Z,924.25
2017-06-09T00:51:41.174Z,924.26
2017-06-09T00:52:00.534Z,924.29
2017-06-09T00:52:19.425Z,924.26
2017-06-09T00:52:38.801Z,924.26
2017-06-09T00:52:58.215Z,924.3
2017-06-09T00:53:17.575Z,924.23
2017-06-09T00:53:36.407Z,924.25
2017-06-09T00:53:55.247Z,924.26
2017-06-09T00:54:14.590Z,924.24
2017-06-09T00:54:33.484Z,924.22
2017-06-09T00:54:52.852Z,924.26
2017-06-09T00:55:12.197Z,924.28
2017-06-09T00:55:31.022Z,924.24
2017-06-09T00:55:49.868Z,924.26
2017-06-09T00:56:08.718Z,924.25
2017-06-09T00:56:28.087Z,924.28
2017-06-09T00:56:46.992Z,924.26
2017-06-09T00:57:06.377Z,924.28
2017-06-09T00:57:25.275Z,924.26
2017-06-09T00:57:44.078Z,924.29
2017-06-09T00:58:03.423Z,924.29
2017-06-09T00:58:22.840Z,924.29
2017-06-09T00:58:41.682Z,924.28
2017-06-09T00:59:01.150Z,924.31
2017-06-09T00:59:20.517Z,924.27
2017-06-09T00:59:39.856Z,924.31
2017-06-09T00:59:59.188Z,924.35
2017-06-09T01:00:18.570Z,924.34
2017-06-09T01:00:37.401Z,924.31
2017-06-09T01:00:56.750Z,924.29
2017-06-09T01:01:16.088Z,924.33
2017-06-09T01:01:34.398Z,924.28
2017-06-09T01:01:53.738Z,924.26
2017-06-09T01:02:12.551Z,924.29
2017-06-09T01:02:31.416Z,924.32
2017-06-09T01:02:50.762Z,924.32
2017-06-09T01:03:09.110Z,924.34
2017-06-09T01:03:28.474Z,924.3
2017-06-09T01:03:47.878Z,924.32
2017-06-09T01:04:06.718Z,924.34
2017-06-09T01:04:25.559Z,924.3
2017-06-09T01:04:44.928Z,924.32
2017-06-09T01:05:03.799Z,924.34
2017-06-09T01:05:22.678Z,924.33
2017-06-09T01:05:41.509Z,924.31
2017-06-09T01:06:00.875Z,924.31
2017-06-09T01:06:20.250Z,924.33
2017-06-09T01:06:38.037Z,924.33
2017-06-09T01:06:57.399Z,924.34
2017-06-09T01:07:16.253Z,924.42
2017-06-09T01:07:35.634Z,924.4
2017-06-09T01:07:54.466Z,924.4
2017-06-09T01:08:13.289Z,924.37
2017-06-09T01:08:32.631Z,924.42
2017-06-09T01:08:50.961Z,924.38
2017-06-09T01:09:10.290Z,924.41
2017-06-09T01:09:29.671Z,924.44
2017-06-09T01:09:49.026Z,924.42
2017-06-09T01:10:07.875Z,924.4
2017-06-09T01:10:27.215Z,924.43
2017-06-09T01:10:46.579Z,924.49
2017-06-09T01:11:05.960Z,924.49
2017-06-09T01:11:25.312Z,924.5
2017-06-09T01:11:44.659Z,924.48
2017-06-09T01:12:04.034Z,924.55
2017-06-09T01:12:23.391Z,924.55
2017-06-09T01:12:42.757Z,924.56
2017-06-09T01:13:01.606Z,924.53
2017-06-09T01:13:20.938Z,924.5
2017-06-09T01:13:40.322Z,924.52
2017-06-09T01:13:59.667Z,924.57
2017-06-09T01:14:18.485Z,924.59
2017-06-09T01:14:37.310Z,924.54
2017-06-09T01:14:56.659Z,924.58
2017-06-09T01:15:15.520Z,924.58
2017-06-09T01:15:34.375Z,924.57
2017-06-09T01:15:53.216Z,924.61
2017-06-09T01:16:12.560Z,924.63
2017-06-09T01:16:31.387Z,924.63
2017-06-09T01:16:50.226Z,924.64
2017-06-09T01:17:09.569Z,924.66
2017-06-09T01:17:28.404Z,924.66
2017-06-09T01:17:47.763Z,924.63
2017-06-09T01:18:07.120Z,924.66
2017-06-09T01:18:26.470Z,924.64
2017-06-09T01:18:44.780Z,924.63
2017-06-09T01:19:04.138Z,924.63
2017-06-09T01:19:22.442Z,924.61
2017-06-09T01:19:41.847Z,924.58
2017-06-09T01:20:00.702Z,924.59
2017-06-09T01:20:19.531Z,924.63
2017-06-09T01:20:38.413Z,924.65
2017-06-09T01:20:57.284Z,924.66
2017-06-09T01:21:16.653Z,924.66
2017-06-09T01:21:36.091Z,924.67
2017-06-09T01:21:55.522Z,924.69
2017-06-09T01:22:14.917Z,924.68
2017-06-09T01:22:33.783Z,924.68
2017-06-09T01:22:53.157Z,924.66
2017-06-09T01:23:12.546Z,924.7
2017-06-09T01:23:31.949Z,924.69
2017-06-09T01:23:50.818Z,924.66
2017-06-09T01:24:10.183Z,924.68
2017-06-09T01:24:29.533Z,924.68
2017-06-09T01:24:47.838Z,924.7
2017-06-09T01:25:07.214Z,924.71
2017-06-09T01:25:25.769Z,924.73
2017-06-09T01:25:45.202Z,924.72
2017-06-09T01:26:04.568Z,924.74
2017-06-09T01:26:22.872Z,924.71
2017-06-09T01:26:42.280Z,924.72
2017-06-09T01:27:02.112Z,924.74
2017-06-09T01:27:21.477Z,924.74
2017-06-09T01:27:40.558Z,924.77
2017-06-09T01:27:59.898Z,924.77
2017-06-09T01:28:18.777Z,924.75
2017-06-09T01:28:37.659Z,924.75
2017-06-09T01:28:57.124Z,924.8
2017-06-09T01:29:16.100Z,924.74
2017-06-09T01:29:35.488Z,924.76
2017-06-09T01:29:54.380Z,924.74
2017-06-09T01:30:13.817Z,924.82
2017-06-09T01:30:46.618Z,924.8
2017-06-09T01:31:05.998Z,924.85
2017-06-09T01:31:25.383Z,924.8
2017-06-09T01:31:44.238Z,924.79
2017-06-09T01:32:03.576Z,924.82
2017-06-09T01:32:22.485Z,924.84
2017-06-09T01:32:41.839Z,924.82
2017-06-09T01:33:01.177Z,924.82
2017-06-09T01:33:20.539Z,924.85
2017-06-09T01:33:39.868Z,924.83
2017-06-09T01:33:59.215Z,924.84
2017-06-09T01:34:18.573Z,924.85
2017-06-09T01:34:37.924Z,924.88
2017-06-09T01:34:57.289Z,924.85
2017-06-09T01:35:16.644Z,924.87
2017-06-09T01:35:35.544Z,924.84
2017-06-09T01:35:54.917Z,924.83
2017-06-09T01:36:13.802Z,924.83
2017-06-09T01:36:32.645Z,924.84
2017-06-09T01:36:52.038Z,924.85
2017-06-09T01:37:11.397Z,924.85
2017-06-09T01:37:30.742Z,924.87
2017-06-09T01:37:49.570Z,924.88
2017-06-09T01:38:08.907Z,924.87
2017-06-09T01:38:28.262Z,924.89
2017-06-09T01:38:47.106Z,924.88
2017-06-09T01:39:06.483Z,924.91
2017-06-09T01:39:25.844Z,924.89
2017-06-09T01:39:45.231Z,924.89
2017-06-09T01:40:04.593Z,924.91
2017-06-09T01:40:22.924Z,924.88
2017-06-09T01:40:42.273Z,924.89
2017-06-09T01:41:01.640Z,924.82
2017-06-09T01:41:20.465Z,924.85
2017-06-09T01:41:39.821Z,924.83
2017-06-09T01:41:59.176Z,924.82
2017-06-09T01:42:18.519Z,924.87
2017-06-09T01:42:37.354Z,924.82
2017-06-09T01:42:56.720Z,924.77
2017-06-09T01:43:16.076Z,924.79
2017-06-09T01:43:35.429Z,924.75
2017-06-09T01:43:54.775Z,924.74
2017-06-09T01:44:14.148Z,924.76
2017-06-09T01:44:33.510Z,924.71
2017-06-09T01:44:52.361Z,924.72
2017-06-09T01:45:11.715Z,924.71
2017-06-09T01:45:31.143Z,924.69
2017-06-09T01:45:49.453Z,924.7
2017-06-09T01:46:08.793Z,924.68
2017-06-09T01:46:28.156Z,924.68
2017-06-09T01:46:46.988Z,924.7
2017-06-09T01:47:06.353Z,924.68
2017-06-09T01:47:25.206Z,924.7
2017-06-09T01:47:44.541Z,924.66
2017-06-09T01:48:03.918Z,924.7
2017-06-09T01:48:23.288Z,924.72
2017-06-09T01:48:42.665Z,924.67
2017-06-09T01:49:02.050Z,924.69
2017-06-09T01:49:21.401Z,924.72
2017-06-09T01:49:40.254Z,924.7
2017-06-09T01:49:59.598Z,924.72
2017-06-09T01:50:18.977Z,924.73
2017-06-09T01:50:38.328Z,924.72
2017-06-09T01:50:57.174Z,924.73
2017-06-09T01:51:16.513Z,924.69
2017-06-09T01:51:35.870Z,924.72
2017-06-09T01:51:54.256Z,924.68
2017-06-09T01:52:13.602Z,924.74
2017-06-09T01:52:32.941Z,924.69
2017-06-09T01:52:52.289Z,924.71
2017-06-09T01:53:11.688Z,924.67
2017-06-09T01:53:30.549Z,924.67
2017-06-09T01:53:49.466Z,924.69
2017-06-09T01:54:08.826Z,924.71
2017-06-09T01:54:27.173Z,924.67
2017-06-09T01:54:46.542Z,924.7
2017-06-09T01:55:05.372Z,924.65
2017-06-09T01:55:24.206Z,924.65
2017-06-09T01:55:43.572Z,924.64
2017-06-09T01:56:02.532Z,924.67
2017-06-09T01:56:20.859Z,924.66
2017-06-09T01:56:40.263Z,924.64
2017-06-09T01:56:59.622Z,924.64
2017-06-09T01:57:18.997Z,924.65
2017-06-09T01:57:38.338Z,924.6
2017-06-09T01:57:56.664Z,924.62
2017-06-09T01:58:16.062Z,924.62
2017-06-09T01:58:34.899Z,924.59
2017-06-09T01:58:54.266Z,924.59
2017-06-09T01:59:13.624Z,924.63
2017-06-09T01:59:31.943Z,924.59
2017-06-09T01:59:51.326Z,924.62
2017-06-09T02:00:09.651Z,924.57
2017-06-09T02:00:29.031Z,924.6
2017-06-09T02:00:47.909Z,924.62
2017-06-09T02:01:06.771Z,924.68
2017-06-09T02:01:25.616Z,924.68
2017-06-09T02:01:44.949Z,924.67
2017-06-09T02:02:04.308Z,924.67
2017-06-09T02:02:23.130Z,924.68
2017-06-09T02:02:42.484Z,924.64
2017-06-09T02:03:01.866Z,924.68
2017-06-09T02:03:20.931Z,924.67
2017-06-09T02:03:54.250Z,924.67
2017-06-09T02:04:13.096Z,924.66
2017-06-09T02:04:31.938Z,924.68
2017-06-09T02:04:51.317Z,924.66
2017-06-09T02:05:10.157Z,924.64
2017-06-09T02:05:28.986Z,924.69
2017-06-09T02:05:47.288Z,924.7
2017-06-09T02:06:06.128Z,924.66
2017-06-09T02:06:24.455Z,924.71
2017-06-09T02:06:43.794Z,924.71
2017-06-09T02:07:03.181Z,924.73
2017-06-09T02:07:22.548Z,924.71
2017-06-09T02:07:41.382Z,924.72
2017-06-09T02:08:00.711Z,924.75
2017-06-09T02:08:19.540Z,924.75
2017-06-09T02:08:38.411Z,924.75
2017-06-09T02:08:57.756Z,924.67
2017-06-09T02:09:17.115Z,924.73
2017-06-09T02:09:36.466Z,924.73
2017-06-09T02:09:56.261Z,924.76
2017-06-09T02:10:15.644Z,924.73
2017-06-09T02:10:35.544Z,924.71
2017-06-09T02:10:54.880Z,924.71
2017-06-09T02:11:14.291Z,924.74
2017-06-09T02:11:33.692Z,924.76
2017-06-09T02:11:53.083Z,924.72
2017-06-09T02:12:11.971Z,924.74
2017-06-09T02:12:31.824Z,924.72
2017-06-09T02:12:51.177Z,924.74
2017-06-09T02:13:11.064Z,924.74
2017-06-09T02:13:30.427Z,924.77
2017-06-09T02:13:49.885Z,924.8
2017-06-09T02:14:08.742Z,924.76
2017-06-09T02:14:27.601Z,924.81
2017-06-09T02:14:46.964Z,924.81
2017-06-09T02:15:06.362Z,924.82
2017-06-09T02:15:25.744Z,924.84
2017-06-09T02:15:44.607Z,924.8
2017-06-09T02:16:04.008Z,924.8
2017-06-09T02:16:23.402Z,924.84
2017-06-09T02:16:42.262Z,924.8
2017-06-09T02:17:01.709Z,924.85
2017-06-09T02:17:20.572Z,924.86
2017-06-09T02:17:39.993Z,924.77
2017-06-09T02:17:59.376Z,924.8
2017-06-09T02:18:18.782Z,924.8
2017-06-09T02:18:37.630Z,924.83
2017-06-09T02:18:57.046Z,924.76
2017-06-09T02:19:16.407Z,924.78
2017-06-09T02:19:35.807Z,924.76
2017-06-09T02:19:55.157Z,924.77
2017-06-09T02:20:14.525Z,924.73
2017-06-09T02:20:33.937Z,924.76
2017-06-09T02:20:53.372Z,924.74
2017-06-09T02:21:12.780Z,924.78
2017-06-09T02:21:32.602Z,924.8
2017-06-09T02:21:51.501Z,924.81
2017-06-09T02:22:10.390Z,924.81
2017-06-09T02:22:29.287Z,924.81
2017-06-09T02:22:48.694Z,924.85
2017-06-09T02:23:08.115Z,924.85
2017-06-09T02:23:26.498Z,924.78
2017-06-09T02:23:46.419Z,924.81
2017-06-09T02:24:05.360Z,924.84
2017-06-09T02:24:24.737Z,924.82
2017-06-09T02:24:44.120Z,924.85
2017-06-09T02:25:03.490Z,924.84
2017-06-09T02:25:22.863Z,924.82
2017-06-09T02:25:42.242Z,924.82
2017-06-09T02:26:01.626Z,924.79
2017-06-09T02:26:21.024Z,924.82
2017-06-09T02:26:40.420Z,924.82
2017-06-09T02:26:59.262Z,924.83
2017-06-09T02:27:18.635Z,924.82
2017-06-09T02:27:38.009Z,924.82
2017-06-09T02:27:57.381Z,924.8
2017-06-09T02:28:16.224Z,924.8
2017-06-09T02:28:35.075Z,924.8
2017-06-09T02:28:54.479Z,924.8
2017-06-09T02:29:13.872Z,924.77
2017-06-09T02:29:33.251Z,924.78
2017-06-09T02:29:52.629Z,924.75
2017-06-09T02:30:12.018Z,924.78
2017-06-09T02:30:31.431Z,924.82
2017-06-09T02:30:50.826Z,924.79
2017-06-09T02:31:10.197Z,924.84
2017-06-09T02:31:29.093Z,924.82
2017-06-09T02:31:47.950Z,924.84
2017-06-09T02:32:07.336Z,924.81
2017-06-09T02:32:26.198Z,924.81
2017-06-09T02:32:45.585Z,924.84
2017-06-09T02:33:04.955Z,924.86
2017-06-09T02:33:24.329Z,924.85
2017-06-09T02:33:43.710Z,924.86
2017-06-09T02:34:03.102Z,924.87
2017-06-09T02:34:21.450Z,924.86
2017-06-09T02:34:40.350Z,924.88
2017-06-09T02:34:59.205Z,924.83
2017-06-09T02:35:18.610Z,924.83
2017-06-09T02:35:37.987Z,924.82
2017-06-09T02:35:57.408Z,924.84
2017-06-09T02:36:16.800Z,924.84
2017-06-09T02:36:36.165Z,924.81
2017-06-09T02:36:55.006Z,924.83
2017-06-09T02:37:13.857Z,924.81
2017-06-09T02:37:33.232Z,924.82
2017-06-09T02:37:52.606Z,924.77
2017-06-09T02:38:12.003Z,924.84
2017-06-09T02:38:31.376Z,924.79
2017-06-09T02:38:50.745Z,924.77
2017-06-09T02:39:09.599Z,924.76
2017-06-09T02:39:28.959Z,924.76
2017-06-09T02:39:48.343Z,924.79
2017-06-09T02:40:07.216Z,924.75
2017-06-09T02:40:26.606Z,924.79
2017-06-09T02:40:47.056Z,924.79
2017-06-09T02:41:06.463Z,924.77
2017-06-09T02:41:26.693Z,924.79
2017-06-09T02:41:46.063Z,924.81
2017-06-09T02:42:05.432Z,924.82
2017-06-09T02:42:24.246Z,924.81
2017-06-09T02:42:43.617Z,924.8
2017-06-09T02:43:02.483Z,924.81
2017-06-09T02:43:21.328Z,924.81
2017-06-09T02:43:40.697Z,924.83
2017-06-09T02:43:59.531Z,924.8
2017-06-09T02:44:18.933Z,924.84
2017-06-09T02:44:38.319Z,924.79
2017-06-09T02:44:57.728Z,924.82
2017-06-09T02:45:16.588Z,924.83
2017-06-09T02:45:35.439Z,924.86
2017-06-09T02:45:54.350Z,924.86
2017-06-09T02:46:12.710Z,924.84
2017-06-09T02:46:32.141Z,924.85
2017-06-09T02:46:50.992Z,924.86
2017-06-09T02:47:10.331Z,924.83
2017-06-09T02:47:29.716Z,924.82
2017-06-09T02:47:49.071Z,924.87
2017-06-09T02:48:08.475Z,924.87
2017-06-09T02:48:27.896Z,924.89
2017-06-09T02:48:46.214Z,924.88
2017-06-09T02:49:05.681Z,924.87
2017-06-09T02:49:24.553Z,924.87
2017-06-09T02:49:43.908Z,924.85
2017-06-09T02:50:03.280Z,924.85
2017-06-09T02:50:22.687Z,924.88
2017-06-09T02:50:41.525Z,924.91
2017-06-09T02:51:01.093Z,924.89
2017-06-09T02:51:20.478Z,924.88
2017-06-09T02:51:39.832Z,924.91
2017-06-09T02:51:59.225Z,924.86
2017-06-09T02:52:18.115Z,924.89
2017-06-09T02:52:36.968Z,924.87
2017-06-09T02:52:56.372Z,924.83
2017-06-09T02:53:15.763Z,924.89
2017-06-09T02:53:34.610Z,924.87
2017-06-09T02:53:53.967Z,924.86
2017-06-09T02:54:13.330Z,924.86
2017-06-09T02:54:32.194Z,924.82
2017-06-09T02:54:50.546Z,924.82
2017-06-09T02:55:09.915Z,924.83
2017-06-09T02:55:28.766Z,924.84
2017-06-09T02:55:47.608Z,924.84
2017-06-09T02:56:07.007Z,924.86
2017-06-09T02:56:25.874Z,924.83
2017-06-09T02:56:45.288Z,924.82
2017-06-09T02:57:04.168Z,924.82
2017-06-09T02:57:23.566Z,924.81
2017-06-09T02:57:42.927Z,924.83
2017-06-09T02:58:02.334Z,924.82
2017-06-09T02:58:21.223Z,924.82
2017-06-09T02:58:40.078Z,924.83
2017-06-09T02:58:59.474Z,924.81
2017-06-09T02:59:18.316Z,924.83
2017-06-09T02:59:37.684Z,924.77
2017-06-09T02:59:56.527Z,924.77
2017-06-09T03:00:15.956Z,924.84
2017-06-09T03:00:35.334Z,924.77
2017-06-09T03:00:54.218Z,924.77
2017-06-09T03:01:13.662Z,924.77
2017-06-09T03:01:32.001Z,924.78
2017-06-09T03:01:51.390Z,924.74
2017-06-09T03:02:10.792Z,924.77
2017-06-09T03:02:30.291Z,924.73
2017-06-09T03:02:49.667Z,924.75
2017-06-09T03:03:09.053Z,924.78
2017-06-09T03:03:28.421Z,924.79
2017-06-09T03:03:47.296Z,924.76
2017-06-09T03:04:06.673Z,924.77
2017-06-09T03:04:26.057Z,924.75
2017-06-09T03:04:44.915Z,924.75
2017-06-09T03:05:04.317Z,924.78
2017-06-09T03:05:22.652Z,924.78
2017-06-09T03:05:41.516Z,924.78
2017-06-09T03:06:00.906Z,924.77
2017-06-09T03:06:20.275Z,924.76
2017-06-09T03:06:39.667Z,924.85
2017-06-09T03:06:59.083Z,924.78
2017-06-09T03:07:18.466Z,924.75
2017-06-09T03:07:37.856Z,924.76
2017-06-09T03:07:57.217Z,924.77
2017-06-09T03:08:16.604Z,924.77
2017-06-09T03:08:35.468Z,924.81
2017-06-09T03:08:54.845Z,924.8
2017-06-09T03:09:14.223Z,924.78
2017-06-09T03:09:33.648Z,924.82
2017-06-09T03:09:53.034Z,924.81
2017-06-09T03:10:11.880Z,924.83
2017-06-09T03:10:30.222Z,924.82
2017-06-09T03:10:49.601Z,924.77
2017-06-09T03:11:08.963Z,924.82
2017-06-09T03:11:27.307Z,924.78
2017-06-09T03:11:46.678Z,924.75
2017-06-09T03:12:06.060Z,924.74
2017-06-09T03:12:24.397Z,924.74
2017-06-09T03:12:43.778Z,924.72
2017-06-09T03:13:03.167Z,924.7
2017-06-09T03:13:22.024Z,924.7
2017-06-09T03:13:41.386Z,924.69
2017-06-09T03:14:00.249Z,924.7
2017-06-09T03:14:19.641Z,924.68
2017-06-09T03:14:38.491Z,924.67
2017-06-09T03:14:57.376Z,924.64
2017-06-09T03:15:16.735Z,924.68
2017-06-09T03:15:36.105Z,924.65
2017-06-09T03:15:54.956Z,924.66
2017-06-09T03:16:14.306Z,924.71
2017-06-09T03:16:33.159Z,924.69
2017-06-09T03:16:52.547Z,924.69
2017-06-09T03:17:10.881Z,924.67
2017-06-09T03:17:30.249Z,924.69
2017-06-09T03:17:49.661Z,924.66
2017-06-09T03:18:09.042Z,924.68
2017-06-09T03:18:28.450Z,924.69
2017-06-09T03:18:47.871Z,924.67
2017-06-09T03:19:06.735Z,924.68
2017-06-09T03:19:26.108Z,924.66
2017-06-09T03:19:44.967Z,924.68
2017-06-09T03:20:04.345Z,924.66
2017-06-09T03:20:23.710Z,924.62
2017-06-09T03:20:42.586Z,924.69
2017-06-09T03:21:01.967Z,924.63
2017-06-09T03:21:21.351Z,924.61
2017-06-09T03:21:40.713Z,924.61
2017-06-09T03:21:59.562Z,924.58
2017-06-09T03:22:18.431Z,924.56
2017-06-09T03:22:37.295Z,924.56
2017-06-09T03:22:56.701Z,924.59
2017-06-09T03:23:16.085Z,924.58
2017-06-09T03:23:35.478Z,924.57
2017-06-09T03:23:54.835Z,924.54
2017-06-09T03:24:14.242Z,924.54
2017-06-09T03:24:33.081Z,924.54
2017-06-09T03:24:52.418Z,924.5
2017-06-09T03:25:11.758Z,924.54
2017-06-09T03:25:30.612Z,924.5
2017-06-09T03:25:49.958Z,924.55
2017-06-09T03:26:09.323Z,924.53
2017-06-09T03:26:28.653Z,924.5
2017-06-09T03:26:48.018Z,924.52
2017-06-09T03:27:07.347Z,924.53
2017-06-09T03:27:26.723Z,924.49
2017-06-09T03:27:46.068Z,924.55
2017-06-09T03:28:05.410Z,924.52
2017-06-09T03:28:24.745Z,924.56
2017-06-09T03:28:44.086Z,924.56
2017-06-09T03:29:03.422Z,924.56
2017-06-09T03:29:22.829Z,924.55
2017-06-09T03:29:41.679Z,924.56
2017-06-09T03:30:01.026Z,924.59
2017-06-09T03:30:19.883Z,924.59
2017-06-09T03:30:39.268Z,924.56
2017-06-09T03:30:58.083Z,924.54
2017-06-09T03:31:17.442Z,924.54
2017-06-09T03:31:36.795Z,924.56
2017-06-09T03:31:56.179Z,924.57
2017-06-09T03:32:15.528Z,924.55
2017-06-09T03:32:34.870Z,924.55
2017-06-09T03:32:53.704Z,924.55
2017-06-09T03:33:12.577Z,924.53
2017-06-09T03:33:31.422Z,924.51
2017-06-09T03:33:50.257Z,924.53
2017-06-09T03:34:09.577Z,924.5
2017-06-09T03:34:28.945Z,924.51
2017-06-09T03:34:48.291Z,924.51
2017-06-09T03:35:07.636Z,924.49
2017-06-09T03:35:25.951Z,924.54
2017-06-09T03:35:45.317Z,924.51
2017-06-09T03:36:04.663Z,924.48
2017-06-09T03:36:24.046Z,924.51
2017-06-09T03:36:43.384Z,924.53
2017-06-09T03:37:02.240Z,924.51
2017-06-09T03:37:21.078Z,924.54
2017-06-09T03:37:40.426Z,924.59
2017-06-09T03:37:59.242Z,924.56
2017-06-09T03:38:18.589Z,924.54
2017-06-09T03:38:37.434Z,924.55
2017-06-09T03:38:56.265Z,924.57
2017-06-09T03:39:15.615Z,924.58
2017-06-09T03:39:34.454Z,924.53
2017-06-09T03:39:53.798Z,924.6
2017-06-09T03:40:12.645Z,924.52
2017-06-09T03:40:32.019Z,924.54
2017-06-09T03:40:51.346Z,924.56
2017-06-09T03:41:10.172Z,924.57
2017-06-09T03:41:29.019Z,924.52
2017-06-09T03:41:48.389Z,924.5
2017-06-09T03:42:07.229Z,924.51
2017-06-09T03:42:26.089Z,924.5
2017-06-09T03:42:45.443Z,924.52
2017-06-09T03:43:04.278Z,924.5
2017-06-09T03:43:23.643Z,924.5
2017-06-09T03:43:42.995Z,924.49
2017-06-09T03:44:01.824Z,924.47
2017-06-09T03:44:21.214Z,924.46
2017-06-09T03:44:40.593Z,924.48
2017-06-09T03:44:59.452Z,924.5
2017-06-09T03:45:18.802Z,924.47
2017-06-09T03:45:38.186Z,924.5
2017-06-09T03:45:57.030Z,924.49
2017-06-09T03:46:16.388Z,924.47
2017-06-09T03:46:35.730Z,924.48
2017-06-09T03:46:54.586Z,924.48
2017-06-09T03:47:13.955Z,924.51
2017-06-09T03:47:32.789Z,924.5
2017-06-09T03:47:51.626Z,924.52
2017-06-09T03:48:10.986Z,924.56
2017-06-09T03:48:29.832Z,924.57
2017-06-09T03:48:49.203Z,924.55
2017-06-09T03:49:08.582Z,924.52
2017-06-09T03:49:27.410Z,924.51
2017-06-09T03:49:46.781Z,924.49
2017-06-09T03:50:06.125Z,924.52
2017-06-09T03:50:25.475Z,924.5
2017-06-09T03:50:44.286Z,924.54
2017-06-09T03:51:03.674Z,924.55
2017-06-09T03:51:23.048Z,924.57
2017-06-09T03:51:41.903Z,924.54
2017-06-09T03:52:01.262Z,924.55
2017-06-09T03:52:19.560Z,924.57
2017-06-09T03:52:38.425Z,924.59
2017-06-09T03:52:57.251Z,924.62
2017-06-09T03:53:16.592Z,924.62
2017-06-09T03:53:35.433Z,924.63
2017-06-09T03:53:54.263Z,924.66
2017-06-09T03:54:13.132Z,924.64
2017-06-09T03:54:32.484Z,924.7
2017-06-09T03:54:51.851Z,924.65
2017-06-09T03:55:11.204Z,924.69
2017-06-09T03:55:30.539Z,924.67
2017-06-09T03:55:49.914Z,924.69
2017-06-09T03:56:09.254Z,924.68
2017-06-09T03:56:27.599Z,924.66
2017-06-09T03:56:46.945Z,924.68
2017-06-09T03:57:06.290Z,924.7
2017-06-09T03:57:25.639Z,924.73
2017-06-09T03:57:45.028Z,924.69
2017-06-09T03:58:03.873Z,924.68
2017-06-09T03:58:23.223Z,924.71
2017-06-09T03:58:42.042Z,924.71
2017-06-09T03:59:01.389Z,924.68
2017-06-09T03:59:20.244Z,924.69
2017-06-09T03:59:39.566Z,924.69
2017-06-09T03:59:58.917Z,924.68
2017-06-09T04:00:17.765Z,924.7
2017-06-09T04:00:37.240Z,924.71
2017-06-09T04:00:56.078Z,924.7